This is the latest recevied weather packets stored in our database for station/object PY5KT-13. If no packets are shown the sender has not sent any weather packets the latest 1 day(s).
| Time | Temp. | Humidity | Pressure | Rain* | Wind** | Luminosity | Snow |
|---|---|---|---|---|---|---|---|
| 1778019480 | 18.89° C | 99% | 1023.1 hPa | 0 mm | - | 37 W/m² | - |
| 1778018273 | 19.44° C | 99% | 1023.1 hPa | 0 mm | - | 38 W/m² | - |
| 1778017067 | 20° C | 98% | 1023 hPa | 0 mm | - | 38 W/m² | - |
| 1778016765 | 20° C | 97% | 1023 hPa | 0 mm | - | 38 W/m² | - |
| 1778016161 | 20.56° C | 92% | 1022.9 hPa | 0 mm | - | 38 W/m² | - |
| 1778014954 | 21.67° C | 81% | 1022.7 hPa | 0 mm | - | 0 W/m² | - |
| 1778014652 | 21.67° C | 78% | 1022.6 hPa | 0 mm | - | 0 W/m² | - |
| 1778014048 | 22.78° C | 71% | 1022.5 hPa | 0 mm | - | 2 W/m² | - |
| 1778013445 | 23.33° C | 66% | 1022.4 hPa | 0 mm | - | 4 W/m² | - |
| 1778012842 | 23.89° C | 63% | 1022.4 hPa | 0 mm | - | 10 W/m² | - |
| 1778011332 | 25.56° C | 57% | 1022.3 hPa | 0 mm | - | 34 W/m² | - |
| 1778009521 | 25.56° C | 54% | 1022.2 hPa | 0 mm | - | 83 W/m² | - |
| 1778009219 | 25.56° C | 53% | 1022.2 hPa | 0 mm | - | 75 W/m² | - |
| 1778008314 | 27.22° C | 49% | 1022.1 hPa | 0 mm | - | 48 W/m² | - |
| 1778007711 | 29.44° C | 44% | 1022.3 hPa | 0 mm | - | 52 W/m² | - |
| 1778007409 | 29.44° C | 43% | 1022.3 hPa | 0 mm | - | 92 W/m² | - |
| 1778006504 | 30° C | 42% | 1022.3 hPa | 0 mm | - | 327 W/m² | - |
| 1778005598 | 28.89° C | 44% | 1022.3 hPa | 0 mm | - | 386 W/m² | - |
| 1778004090 | 30° C | 41% | 1022.4 hPa | 0 mm | - | 442 W/m² | - |
| 1778002883 | 26.67° C | 49% | 1022.5 hPa | 0 mm | - | 79 W/m² | - |
| 1778002280 | 27.22° C | 48% | 1022.7 hPa | 0 mm | - | 95 W/m² | - |
| 1778001978 | 27.22° C | 47% | 1022.7 hPa | 0 mm | - | 100 W/m² | - |
| 1778001073 | 27.78° C | 46% | 1022.7 hPa | 0 mm | - | 517 W/m² | - |
* Rain latest hour (hover to see other rain measurements)
** Current wind speed in m/s (hover to see current wind gust speed)